Time;durP1;ratioP1;P1;durP2;ratioP2;P2;SDS_P1;SDS_P2;PMS_P1;PMS_P2;Temp;Humidity;BMP_temperature;BMP_pressure;BME280_temperature;BME280_humidity;BME280_pressure;Samples;Min_cycle;Max_cycle;Signal;HPM_P1;HPM_P2
2022/01/26 00:06:55;;;;;;;14.87;9.23;;;;;;;0.08;45.25;95414.63;5012719;28;20177;-77
2022/01/26 00:09:26;;;;;;;12.97;8.80;;;;;;;0.10;45.38;95410.38;5012706;28;20198;-78
2022/01/26 00:11:55;;;;;;;13.67;9.47;;;;;;;0.07;45.29;95403.75;5012851;28;20193;-78
2022/01/26 00:14:23;;;;;;;17.87;9.60;;;;;;;0.14;45.15;95411.91;5027256;28;20660;-77
2022/01/26 00:16:50;;;;;;;12.73;9.27;;;;;;;0.15;45.69;95413.53;5011888;28;20631;-78
2022/01/26 00:19:21;;;;;;;14.20;9.23;;;;;;;0.13;45.11;95402.72;5013130;28;20562;-78
2022/01/26 00:21:51;;;;;;;14.07;8.20;;;;;;;0.11;45.31;95400.25;5014499;28;20215;-73
2022/01/26 00:29:48;;;;;;;13.70;8.93;;;;;;;0.11;45.54;95400.25;4970259;28;20280;-76
2022/01/26 00:40:34;;;;;;;9.33;7.67;;;;;;;0.09;45.35;95401.22;4970461;28;20192;-75
2022/01/26 00:43:09;;;;;;;13.33;9.03;;;;;;;-0.05;45.51;95377.38;4970036;28;20197;-77
2022/01/26 00:45:37;;;;;;;11.13;8.03;;;;;;;0.09;45.35;95398.69;4969940;28;20212;-74
2022/01/26 00:48:08;;;;;;;13.37;8.50;;;;;;;0.11;45.62;95394.41;4969913;28;20197;-77
2022/01/26 00:50:37;;;;;;;13.30;8.17;;;;;;;0.10;45.53;95395.31;4970468;28;20820;-76
2022/01/26 00:53:05;;;;;;;14.20;9.17;;;;;;;0.10;45.36;95393.59;4969941;28;20205;-78
2022/01/26 00:55:34;;;;;;;11.37;7.23;;;;;;;0.05;45.48;95387.13;4972360;28;20197;-73
2022/01/26 00:58:00;;;;;;;14.30;8.63;;;;;;;0.07;45.40;95393.72;4979122;28;20209;-76
2022/01/26 01:00:29;;;;;;;11.67;7.83;;;;;;;0.07;45.64;95395.41;4979833;28;20206;-78
2022/01/26 01:03:00;;;;;;;12.63;8.20;;;;;;;0.08;45.55;95389.50;4978999;28;20201;-75
2022/01/26 01:05:33;;;;;;;16.07;8.73;;;;;;;0.11;45.48;95389.38;4976841;28;20221;-76
2022/01/26 01:08:04;;;;;;;13.43;8.83;;;;;;;0.03;45.64;95371.25;5008812;28;20223;-76
2022/01/26 01:10:32;;;;;;;12.37;8.50;;;;;;;0.11;45.44;95371.78;5011776;28;20188;-77
2022/01/26 01:12:59;;;;;;;11.20;8.83;;;;;;;0.18;45.68;95380.75;5010720;28;20814;-75
2022/01/26 01:15:27;;;;;;;14.03;8.80;;;;;;;0.23;45.28;95378.88;5012006;28;20184;-75
2022/01/26 01:18:04;;;;;;;18.30;9.33;;;;;;;0.25;45.76;95387.97;5014878;28;20575;-76
2022/01/26 01:20:51;;;;;;;13.50;8.80;;;;;;;0.17;45.31;95362.31;5011242;28;20259;-74
2022/01/26 01:29:09;;;;;;;16.73;9.97;;;;;;;0.37;45.56;95379.16;4986239;28;20754;-78
2022/01/26 01:31:44;;;;;;;16.40;9.07;;;;;;;0.38;45.29;95380.78;4988478;28;20181;-75
2022/01/26 01:34:13;;;;;;;17.00;10.17;;;;;;;0.35;45.29;95365.00;4989439;28;20239;-73
2022/01/26 01:36:43;;;;;;;15.37;9.83;;;;;;;0.41;45.45;95379.84;4989488;28;20625;-75
2022/01/26 01:39:10;;;;;;;14.57;10.30;;;;;;;0.42;45.27;95368.91;4989361;28;20663;-74
2022/01/26 01:41:40;;;;;;;15.23;10.23;;;;;;;0.46;45.51;95373.75;4989171;28;20185;-78
2022/01/26 01:44:07;;;;;;;17.07;10.07;;;;;;;0.49;45.48;95371.13;4989181;28;20263;-77
2022/01/26 01:46:35;;;;;;;15.63;9.97;;;;;;;0.30;45.68;95342.53;4988296;28;20227;-76
2022/01/26 01:49:03;;;;;;;15.67;10.67;;;;;;;0.53;45.15;95365.97;4988658;28;20197;-78
2022/01/26 01:51:34;;;;;;;17.50;10.70;;;;;;;0.56;45.33;95366.66;4988752;28;20656;-77
2022/01/26 01:54:02;;;;;;;16.30;10.20;;;;;;;0.50;45.52;95349.28;4988945;28;20197;-74
2022/01/26 01:56:30;;;;;;;17.83;11.23;;;;;;;0.58;45.18;95359.88;4988513;28;20205;-77
2022/01/26 01:58:58;;;;;;;15.93;10.53;;;;;;;0.61;45.10;95353.91;4988421;28;20665;-77
2022/01/26 02:01:26;;;;;;;17.97;10.67;;;;;;;0.64;45.31;95351.25;4988860;28;20316;-77
2022/01/26 02:03:53;;;;;;;15.47;10.33;;;;;;;0.64;45.30;95352.06;5009446;28;20204;-77
2022/01/26 02:06:20;;;;;;;15.90;10.47;;;;;;;0.63;45.32;95342.88;5010256;28;20230;-76
2022/01/26 02:08:47;;;;;;;17.03;10.47;;;;;;;0.69;45.17;95346.84;5010311;28;20192;-80
2022/01/26 02:11:15;;;;;;;18.30;11.37;;;;;;;0.70;45.50;95341.78;5010703;28;20215;-74
2022/01/26 02:13:50;;;;;;;17.60;11.63;;;;;;;0.72;45.54;95345.03;5010306;28;20250;-78
2022/01/26 02:16:23;;;;;;;17.40;11.00;;;;;;;0.56;45.32;95315.50;5010454;28;20206;-78
2022/01/26 02:19:15;;;;;;;17.40;11.67;;;;;;;0.74;45.43;95337.44;5012096;28;20196;-78
2022/01/26 02:52:39;;;;;;;18.83;11.57;;;;;;;0.94;46.06;95334.06;4877303;29;20208;-75
2022/01/26 02:55:21;;;;;;;17.80;11.33;;;;;;;0.95;45.89;95333.19;4877406;29;20391;-76
2022/01/26 02:58:07;;;;;;;16.80;11.23;;;;;;;0.97;45.99;95328.91;4877422;29;20280;-78
2022/01/26 03:00:44;;;;;;;18.13;10.80;;;;;;;0.87;46.19;95310.88;4898915;29;20672;-78
2022/01/26 03:03:16;;;;;;;18.80;10.20;;;;;;;1.02;46.20;95332.06;4920343;29;20199;-75
2022/01/26 03:05:50;;;;;;;20.83;11.30;;;;;;;1.05;46.20;95331.94;4940718;29;20226;-78
2022/01/26 03:08:18;;;;;;;16.37;10.83;;;;;;;0.89;46.16;95301.53;4952820;29;20286;-77
2022/01/26 03:10:51;;;;;;;14.77;9.93;;;;;;;1.10;45.88;95332.56;4952656;29;20282;-75
2022/01/26 03:13:22;;;;;;;15.30;9.23;;;;;;;1.13;46.11;95334.13;4952637;29;20629;-75
2022/01/26 03:15:53;;;;;;;14.60;10.30;;;;;;;1.12;46.08;95330.78;4952313;29;20198;-78
2022/01/26 03:18:45;;;;;;;16.27;9.23;;;;;;;1.17;46.32;95341.50;4952461;29;20190;-77
2022/01/26 03:21:13;;;;;;;18.50;9.27;;;;;;;1.19;46.10;95339.72;4952522;29;20305;-75
2022/01/26 03:29:14;;;;;;;13.47;8.80;;;;;;;1.26;46.33;95327.69;5012453;28;20282;-77
2022/01/26 03:34:26;;;;;;;16.27;9.10;;;;;;;1.23;46.22;95316.03;5012901;28;20578;-76
2022/01/26 03:36:56;;;;;;;13.17;8.70;;;;;;;1.31;46.23;95325.78;5013136;28;20185;-73
2022/01/26 03:39:26;;;;;;;13.63;9.73;;;;;;;1.34;46.29;95322.31;5012803;28;20181;-78
2022/01/26 03:42:03;;;;;;;19.70;8.43;;;;;;;1.29;46.29;95317.47;5014180;28;20188;-77
2022/01/26 03:44:30;;;;;;;13.93;8.53;;;;;;;1.39;46.27;95328.78;5016529;28;20576;-77
2022/01/26 03:46:56;;;;;;;13.60;8.77;;;;;;;1.43;46.00;95334.53;5016155;28;20220;-76
2022/01/26 03:49:23;;;;;;;13.47;9.23;;;;;;;1.42;46.03;95320.25;5016458;28;20588;-78
2022/01/26 03:51:50;;;;;;;12.40;8.90;;;;;;;1.46;45.83;95326.81;5015894;28;20184;-76
2022/01/26 03:54:19;;;;;;;13.47;9.00;;;;;;;1.32;45.87;95298.88;5014519;28;20192;-79
2022/01/26 03:56:46;;;;;;;12.47;8.60;;;;;;;1.48;45.43;95315.78;5013464;28;20212;-79
2022/01/26 03:59:14;;;;;;;16.10;9.03;;;;;;;1.49;45.72;95314.09;5012497;28;20196;-76
2022/01/26 04:01:41;;;;;;;11.83;8.53;;;;;;;1.52;45.87;95315.66;5012272;28;20579;-78
2022/01/26 04:04:08;;;;;;;13.77;9.30;;;;;;;1.53;45.67;95318.09;5012377;28;20196;-77
2022/01/26 04:06:35;;;;;;;12.83;9.03;;;;;;;1.54;45.58;95309.66;5012489;28;20224;-78
2022/01/26 04:09:06;;;;;;;16.10;9.33;;;;;;;1.37;45.67;95287.72;5011952;28;20184;-79
2022/01/26 04:11:38;;;;;;;13.83;8.07;;;;;;;1.45;45.61;95294.94;5012011;28;20578;-77
2022/01/26 04:14:09;;;;;;;10.80;8.27;;;;;;;1.58;45.82;95318.72;5012316;28;20664;-76
2022/01/26 04:16:39;;;;;;;11.90;7.77;;;;;;;1.59;45.73;95314.47;5012058;28;20552;-76
2022/01/26 04:19:07;;;;;;;12.03;7.67;;;;;;;1.60;45.59;95308.56;5013554;28;20192;-78
2022/01/26 04:21:46;;;;;;;14.70;8.37;;;;;;;1.43;45.55;95274.88;5012482;28;20768;-77
2022/01/26 04:24:18;;;;;;;11.07;8.07;;;;;;;1.64;45.55;95297.44;5011925;28;20663;-78
2022/01/26 04:26:52;;;;;;;12.07;8.23;;;;;;;1.67;45.59;95299.84;5012415;28;20255;-76
2022/01/26 04:29:24;;;;;;;12.20;8.30;;;;;;;1.67;45.72;95294.81;5011437;28;20228;-78
2022/01/26 04:31:52;;;;;;;14.17;8.87;;;;;;;1.48;45.81;95265.38;5011326;28;20316;-78
2022/01/26 04:34:19;;;;;;;14.27;7.60;;;;;;;1.61;45.60;95278.25;5014661;28;20197;-77
2022/01/26 04:36:52;;;;;;;13.57;8.13;;;;;;;1.72;45.27;95293.69;5012066;28;20670;-78
2022/01/26 04:39:23;;;;;;;12.83;8.40;;;;;;;1.74;45.46;95298.69;5011178;28;20196;-76
2022/01/26 04:41:54;;;;;;;12.93;8.30;;;;;;;1.76;45.67;95301.94;5011650;28;20188;-76
2022/01/26 04:44:23;;;;;;;13.37;8.37;;;;;;;1.76;45.65;95295.19;5011635;28;20196;-76
2022/01/26 04:46:53;;;;;;;14.40;8.37;;;;;;;1.79;45.46;95306.03;5011307;28;20227;-76
2022/01/26 04:49:20;;;;;;;13.27;8.37;;;;;;;1.82;45.28;95300.88;5011600;28;20188;-77
2022/01/26 04:51:48;;;;;;;14.73;8.77;;;;;;;1.83;45.32;95297.44;5011809;28;20196;-74
2022/01/26 04:54:15;;;;;;;15.33;9.13;;;;;;;1.84;45.40;95299.06;5011415;28;20192;-75
2022/01/26 04:56:41;;;;;;;14.93;9.20;;;;;;;1.86;45.45;95292.28;5011512;28;20631;-77
2022/01/26 04:59:08;;;;;;;12.37;7.80;;;;;;;1.87;45.54;95289.69;5011096;28;20203;-77
2022/01/26 05:01:35;;;;;;;13.47;7.93;;;;;;;1.89;45.09;95292.13;5011117;28;20200;-77
2022/01/26 05:04:04;;;;;;;11.23;8.10;;;;;;;1.90;45.31;95291.22;5012219;28;20196;-76
2022/01/26 05:06:31;;;;;;;12.43;7.93;;;;;;;1.82;45.48;95281.50;5011192;28;20220;-76
2022/01/26 05:08:58;;;;;;;13.33;7.97;;;;;;;1.78;45.32;95282.53;5010699;28;20188;-77
2022/01/26 05:11:32;;;;;;;12.93;8.40;;;;;;;1.95;45.29;95304.47;5011336;28;20218;-75
2022/01/26 05:13:59;;;;;;;15.80;9.17;;;;;;;1.97;45.27;95305.19;5011153;28;20195;-74
2022/01/26 05:16:26;;;;;;;15.73;9.30;;;;;;;1.94;45.39;95298.59;5010650;28;20290;-78
2022/01/26 05:18:54;;;;;;;14.53;8.93;;;;;;;1.98;45.22;95309.34;5011242;28;20215;-77
2022/01/26 05:21:25;;;;;;;14.30;8.90;;;;;;;1.99;45.44;95301.72;5010993;28;20184;-76
2022/01/26 05:23:53;;;;;;;14.40;8.93;;;;;;;2.03;45.21;95306.59;5011429;28;20200;-76
2022/01/26 05:26:20;;;;;;;11.13;8.17;;;;;;;2.02;45.38;95300.75;5010654;28;20297;-77
2022/01/26 05:28:47;;;;;;;14.73;9.77;;;;;;;1.95;45.38;95294.38;5011198;28;20278;-76
2022/01/26 05:31:15;;;;;;;15.40;8.83;;;;;;;2.03;45.53;95291.47;5012385;28;20262;-77
2022/01/26 05:33:42;;;;;;;12.97;8.40;;;;;;;2.03;45.42;95304.94;5010649;28;20188;-77
2022/01/26 05:36:09;;;;;;;14.53;9.07;;;;;;;2.04;45.47;95298.16;5010664;28;20192;-78
2022/01/26 05:38:38;;;;;;;15.63;8.80;;;;;;;2.05;45.21;95292.22;5010938;28;20192;-77
2022/01/26 05:41:05;;;;;;;12.30;8.50;;;;;;;1.95;45.40;95281.75;5010461;28;20196;-75
2022/01/26 05:43:32;;;;;;;13.50;9.23;;;;;;;2.07;45.51;95296.31;5010612;28;20191;-77
2022/01/26 05:46:04;;;;;;;14.53;9.20;;;;;;;2.08;45.21;95289.56;5010052;28;20278;-75
2022/01/26 05:48:31;;;;;;;15.93;9.90;;;;;;;2.10;45.25;95288.59;5010772;28;20271;-78
2022/01/26 05:51:05;;;;;;;12.47;8.53;;;;;;;2.10;45.63;95291.13;5010475;28;20619;-78
2022/01/26 05:53:32;;;;;;;15.20;8.43;;;;;;;2.12;45.68;95284.31;5007580;28;20251;-76
2022/01/26 05:56:01;;;;;;;19.40;9.73;;;;;;;2.03;45.80;95269.63;5008086;28;20204;-77
2022/01/26 05:58:28;;;;;;;11.90;8.27;;;;;;;2.16;45.63;95288.31;5008330;28;20200;-77
2022/01/26 06:00:57;;;;;;;12.10;8.40;;;;;;;2.13;45.66;95275.03;5007580;28;20203;-76
2022/01/26 06:03:24;;;;;;;13.73;9.07;;;;;;;2.18;45.84;95284.00;5007871;28;20192;-77
2022/01/26 06:05:52;;;;;;;14.17;9.27;;;;;;;2.00;46.20;95247.06;5007733;28;20200;-79
2022/01/26 06:08:19;;;;;;;13.40;8.80;;;;;;;2.19;45.84;95280.59;5008101;28;20192;-74
2022/01/26 06:10:46;;;;;;;12.80;8.80;;;;;;;2.23;45.97;95291.34;5007882;28;20180;-76
2022/01/26 06:13:14;;;;;;;10.67;8.50;;;;;;;2.25;46.38;95287.88;5007594;28;20694;-76
2022/01/26 06:15:40;;;;;;;13.83;8.90;;;;;;;2.29;46.07;95286.03;5007815;28;20192;-74
2022/01/26 06:18:08;;;;;;;10.77;8.83;;;;;;;2.31;46.25;95289.28;5007964;28;20663;-77
2022/01/26 06:20:35;;;;;;;12.83;9.53;;;;;;;2.34;46.40;95285.81;5008013;28;20267;-76
2022/01/26 06:23:04;;;;;;;14.83;9.40;;;;;;;2.32;46.36;95290.91;5007898;28;20196;-74
2022/01/26 06:25:31;;;;;;;14.47;8.93;;;;;;;2.24;46.41;95265.22;5008018;28;20185;-77
2022/01/26 06:27:59;;;;;;;14.20;8.97;;;;;;;2.42;46.58;95289.59;5007076;28;20236;-79
2022/01/26 06:30:28;;;;;;;11.37;7.10;;;;;;;3.06;100.00;95287.31;5008321;28;20770;-77
2022/01/26 06:32:56;;;;;;;19.53;9.07;;;;;;;4.45;100.00;95284.94;5008155;28;20208;-76
2022/01/26 06:35:23;;;;;;;17.20;10.73;;;;;;;5.64;100.00;95282.19;5008855;28;20566;-69
2022/01/26 06:37:50;;;;;;;13.43;9.33;;;;;;;6.16;98.39;95284.91;5008313;28;20200;-74
2022/01/26 06:40:17;;;;;;;13.10;8.70;;;;;;;6.24;91.25;95290.31;5009150;28;20188;-72
2022/01/26 06:42:52;;;;;;;15.63;9.93;;;;;;;6.15;84.29;95282.47;5007923;28;20219;-71
2022/01/26 06:45:22;;;;;;;17.50;10.23;;;;;;;6.02;78.24;95284.94;5007926;28;20192;-76
2022/01/26 06:50:32;;;;;;;17.00;10.77;;;;;;;5.69;68.66;95288.63;4985576;28;20211;-79
2022/01/26 06:52:59;;;;;;;17.80;10.30;;;;;;;5.54;65.62;95295.44;4985363;28;20197;-78
2022/01/26 06:55:26;;;;;;;15.37;11.07;;;;;;;5.21;63.28;95265.28;4985595;28;20193;-74
2022/01/26 06:57:53;;;;;;;17.17;10.60;;;;;;;5.27;61.29;95302.16;4986275;28;20185;-74
2022/01/26 07:00:20;;;;;;;18.87;11.70;;;;;;;5.15;59.69;95300.34;4986101;28;20201;-76
2022/01/26 07:02:46;;;;;;;18.43;12.37;;;;;;;5.01;58.11;95306.22;5000521;28;20203;-76
2022/01/26 07:05:15;;;;;;;20.10;12.03;;;;;;;4.91;56.78;95307.66;5000490;28;20196;-74
2022/01/26 07:07:42;;;;;;;19.10;11.50;;;;;;;4.82;55.86;95310.72;4990220;28;20228;-74
2022/01/26 07:10:10;;;;;;;19.77;13.13;;;;;;;4.71;54.94;95304.53;5001007;28;20300;-76
2022/01/26 07:12:37;;;;;;;17.60;11.97;;;;;;;4.50;54.17;95281.25;4991360;28;20667;-76
2022/01/26 07:23:26;;;;;;;22.77;12.80;;;;;;;4.38;52.60;95297.13;4950200;29;20257;-74
2022/01/26 07:25:53;;;;;;;20.87;12.67;;;;;;;4.35;52.43;95296.47;4950949;29;20258;-75
2022/01/26 07:28:21;;;;;;;16.13;11.90;;;;;;;4.32;52.15;95296.63;4962840;28;20799;-75
2022/01/26 07:30:48;;;;;;;15.60;11.97;;;;;;;4.29;51.86;95292.56;4968985;28;20620;-75
2022/01/26 07:33:14;;;;;;;20.37;12.90;;;;;;;4.25;51.86;95298.69;4969801;28;20205;-73
2022/01/26 07:35:43;;;;;;;21.67;12.70;;;;;;;4.25;51.79;95299.50;4969849;28;20193;-73
2022/01/26 07:38:09;;;;;;;21.10;12.23;;;;;;;4.23;51.56;95298.78;4968995;28;20220;-76
2022/01/26 07:40:39;;;;;;;21.63;13.00;;;;;;;4.22;51.46;95298.84;4952366;28;20194;-74
2022/01/26 07:43:06;;;;;;;17.63;12.23;;;;;;;4.19;51.64;95304.91;4969352;28;20557;-75
2022/01/26 07:45:32;;;;;;;19.13;12.53;;;;;;;4.18;51.45;95305.00;4969095;28;20190;-72
2022/01/26 07:47:59;;;;;;;17.10;11.37;;;;;;;4.15;51.44;95302.66;4970757;28;20229;-74
2022/01/26 07:50:26;;;;;;;20.13;12.77;;;;;;;4.15;51.35;95302.66;4981496;28;20198;-76
2022/01/26 07:52:54;;;;;;;17.83;12.23;;;;;;;4.14;51.35;95306.88;4983140;28;20201;-73
2022/01/26 07:55:22;;;;;;;19.70;12.90;;;;;;;4.13;51.22;95302.72;4982559;28;20202;-73
2022/01/26 07:57:51;;;;;;;19.17;12.27;;;;;;;4.14;51.15;95309.41;5008107;28;20192;-74
2022/01/26 08:00:19;;;;;;;19.07;12.20;;;;;;;4.09;51.32;95293.66;5021121;28;20260;-73
2022/01/26 08:02:46;;;;;;;19.07;12.77;;;;;;;4.16;51.19;95301.75;5010184;28;20196;-73
2022/01/26 08:05:15;;;;;;;19.27;11.83;;;;;;;4.16;51.13;95302.56;5010258;28;20192;-74
2022/01/26 08:07:42;;;;;;;19.00;11.37;;;;;;;4.16;51.36;95302.56;5010530;28;20251;-72
2022/01/26 08:10:12;;;;;;;16.13;11.07;;;;;;;4.15;51.37;95305.19;5009974;28;20196;-74
2022/01/26 08:12:39;;;;;;;16.20;10.77;;;;;;;4.15;51.35;95305.19;5010248;28;20192;-76
2022/01/26 08:15:07;;;;;;;14.17;10.97;;;;;;;4.10;51.52;95295.31;5011324;28;20196;-73
2022/01/26 08:17:34;;;;;;;15.70;11.23;;;;;;;4.15;51.42;95300.13;5012306;28;20211;-73
2022/01/26 08:20:04;;;;;;;17.50;11.17;;;;;;;4.17;51.59;95303.38;5013624;28;20295;-74
2022/01/26 08:22:31;;;;;;;19.40;10.97;;;;;;;4.19;51.68;95306.63;5033092;28;20561;-73
2022/01/26 08:24:58;;;;;;;16.80;11.67;;;;;;;4.18;51.68;95303.25;5032581;28;20234;-73
2022/01/26 08:27:30;;;;;;;15.10;10.47;;;;;;;4.21;51.75;95304.81;5031462;28;20357;-74
2022/01/26 08:30:04;;;;;;;17.93;10.87;;;;;;;4.25;51.65;95303.75;5032383;28;20210;-74
2022/01/26 08:32:31;;;;;;;15.67;11.27;;;;;;;4.26;51.89;95298.59;5031415;28;20670;-73
2022/01/26 08:34:58;;;;;;;16.37;11.23;;;;;;;4.29;51.78;95292.56;5031054;28;20198;-74
2022/01/26 08:37:24;;;;;;;17.07;10.90;;;;;;;4.31;51.88;95305.94;5030981;28;20192;-73
2022/01/26 08:39:51;;;;;;;18.93;10.60;;;;;;;4.34;51.86;95294.84;5030698;28;20191;-75
2022/01/26 08:42:18;;;;;;;16.70;11.47;;;;;;;4.30;51.88;95301.78;5031073;28;20180;-73
2022/01/26 08:44:46;;;;;;;16.50;9.47;;;;;;;4.38;51.89;95314.84;5031234;28;20195;-74
2022/01/26 08:47:13;;;;;;;13.33;10.00;;;;;;;4.43;52.09;95317.13;5030954;28;20215;-73
2022/01/26 08:49:40;;;;;;;14.63;8.93;;;;;;;4.41;52.00;95299.50;5030965;28;20192;-74
2022/01/26 08:52:07;;;;;;;16.33;10.73;;;;;;;4.52;51.98;95319.13;5031269;28;20187;-74
2022/01/26 08:54:34;;;;;;;14.47;9.57;;;;;;;4.56;52.11;95315.53;5030425;28;20195;-74
2022/01/26 08:57:01;;;;;;;12.87;9.40;;;;;;;4.57;51.97;95311.28;5030745;28;20575;-74
2022/01/26 08:59:28;;;;;;;12.03;8.90;;;;;;;4.58;51.97;95302.78;5030733;28;20191;-74
2022/01/26 09:01:56;;;;;;;13.57;9.13;;;;;;;4.55;51.94;95287.78;5030796;28;20579;-73
2022/01/26 09:04:23;;;;;;;12.33;8.53;;;;;;;4.72;51.90;95310.44;5030162;28;20239;-74
2022/01/26 09:06:55;;;;;;;13.27;8.70;;;;;;;4.77;51.83;95311.78;5030206;28;20192;-72
2022/01/26 09:09:23;;;;;;;12.90;8.80;;;;;;;4.83;51.81;95315.69;5030852;28;20211;-72
2022/01/26 09:11:51;;;;;;;14.07;9.00;;;;;;;4.91;51.79;95318.59;5030500;28;20187;-71
2022/01/26 09:14:23;;;;;;;10.37;7.80;;;;;;;4.83;51.83;95294.59;5030457;28;20825;-72
2022/01/26 09:16:53;;;;;;;11.47;8.00;;;;;;;5.01;51.70;95316.38;5029845;28;20195;-72
2022/01/26 09:19:30;;;;;;;9.73;8.00;;;;;;;5.07;51.70;95322.78;5030257;28;20250;-74
2022/01/26 09:21:59;;;;;;;14.00;8.23;;;;;;;5.10;51.60;95325.16;5030335;28;20190;-74
2022/01/26 09:24:28;;;;;;;11.87;8.20;;;;;;;5.14;51.69;95326.59;5030496;28;20237;-73
2022/01/26 09:26:54;;;;;;;11.13;8.20;;;;;;;5.17;51.50;95326.41;5030602;28;20184;-74
2022/01/26 09:29:21;;;;;;;13.90;8.60;;;;;;;5.19;51.88;95322.09;5029713;28;20235;-74
2022/01/26 09:31:48;;;;;;;11.33;8.90;;;;;;;5.22;51.62;95317.66;5030888;28;20183;-74
2022/01/26 09:34:16;;;;;;;12.70;8.50;;;;;;;5.12;51.47;95283.59;5030516;28;20254;-74
2022/01/26 09:36:45;;;;;;;12.33;8.23;;;;;;;5.33;51.72;95314.47;5030891;28;20215;-74
2022/01/26 09:39:12;;;;;;;12.07;8.60;;;;;;;5.38;51.50;95315.00;5037921;28;20239;-72
2022/01/26 09:41:40;;;;;;;12.07;8.20;;;;;;;5.45;51.42;95307.88;5030640;28;20199;-75
2022/01/26 09:44:07;;;;;;;10.80;8.17;;;;;;;5.49;51.40;95299.97;5030703;28;20219;-73
2022/01/26 09:46:34;;;;;;;12.37;8.63;;;;;;;5.58;51.31;95301.16;5030008;28;20678;-73
2022/01/26 09:49:02;;;;;;;11.97;8.57;;;;;;;5.64;51.11;95293.16;5029831;28;20227;-75
2022/01/26 09:51:31;;;;;;;10.43;8.13;;;;;;;5.76;51.11;95301.75;5030258;28;20192;-73
2022/01/26 09:54:02;;;;;;;11.40;8.13;;;;;;;5.84;50.97;95299.56;5030283;28;20587;-74
2022/01/26 09:56:29;;;;;;;10.80;8.07;;;;;;;5.86;50.77;95269.00;5030129;28;20196;-75
2022/01/26 09:58:56;;;;;;;11.20;8.03;;;;;;;6.06;50.74;95288.94;5030321;28;20202;-75
2022/01/26 10:01:23;;;;;;;11.63;8.73;;;;;;;6.12;50.64;95282.66;5029993;28;20188;-75
2022/01/26 10:03:51;;;;;;;14.17;8.90;;;;;;;6.23;50.51;95285.34;5029729;28;20194;-73
2022/01/26 10:06:22;;;;;;;13.83;8.77;;;;;;;6.31;50.33;95290.75;5030306;28;20274;-74
2022/01/26 10:09:01;;;;;;;12.70;8.47;;;;;;;6.35;50.39;95288.81;5029665;28;20636;-74
2022/01/26 10:19:54;;;;;;;10.73;7.53;;;;;;;6.50;50.31;95291.19;5030233;28;20199;-74
2022/01/26 10:22:27;;;;;;;13.63;8.20;;;;;;;6.39;50.14;95257.22;5029843;28;20199;-76
2022/01/26 10:25:06;;;;;;;11.90;8.30;;;;;;;6.57;50.09;95278.94;5030837;28;20273;-76
2022/01/26 10:27:39;;;;;;;12.10;8.43;;;;;;;6.62;50.21;95276.91;5029877;28;20250;-75
2022/01/26 10:30:08;;;;;;;12.57;8.37;;;;;;;6.62;50.03;95271.81;5030145;28;20184;-75
2022/01/26 10:32:36;;;;;;;11.27;8.60;;;;;;;6.64;50.21;95275.06;5029855;28;20195;-74
2022/01/26 10:35:05;;;;;;;11.30;7.80;;;;;;;6.64;50.04;95277.59;5029642;28;20191;-75
2022/01/26 10:37:32;;;;;;;10.17;7.77;;;;;;;6.65;50.08;95274.16;5029334;28;20192;-73
2022/01/26 10:40:16;;;;;;;11.67;7.93;;;;;;;6.66;50.21;95278.34;5031964;28;20188;-75
2022/01/26 10:42:56;;;;;;;11.33;8.27;;;;;;;6.65;50.51;95264.00;5033969;28;20210;-75
2022/01/26 10:45:49;;;;;;;12.00;8.50;;;;;;;6.53;50.23;95244.47;5033559;28;20567;-73
2022/01/26 10:48:24;;;;;;;11.80;7.60;;;;;;;6.69;50.21;95254.44;5033519;28;20257;-73
2022/01/26 10:53:43;;;;;;;9.27;7.33;;;;;;;6.63;50.36;95249.75;5033686;28;20202;-73
2022/01/26 10:56:10;;;;;;;12.63;8.37;;;;;;;6.77;50.28;95264.91;5033542;28;20191;-74
2022/01/26 10:58:38;;;;;;;11.50;9.00;;;;;;;6.78;50.37;95264.03;5033166;28;20207;-75
2022/01/26 11:01:05;;;;;;;11.23;8.40;;;;;;;6.81;50.24;95258.72;5041695;28;20245;-73
2022/01/26 11:03:33;;;;;;;9.03;7.57;;;;;;;6.84;50.14;95260.25;5041279;28;20203;-73
2022/01/26 11:06:00;;;;;;;12.37;8.40;;;;;;;6.84;50.35;95261.06;5033851;28;20188;-73
2022/01/26 11:08:30;;;;;;;12.73;8.90;;;;;;;6.84;50.47;95271.22;5033146;28;20254;-74
2022/01/26 11:10:57;;;;;;;10.93;8.03;;;;;;;6.71;50.38;95242.44;5026613;28;20211;-74
2022/01/26 11:13:26;;;;;;;12.87;8.20;;;;;;;6.82;50.48;95259.53;5020925;28;20211;-76
2022/01/26 11:15:55;;;;;;;10.93;8.93;;;;;;;6.82;50.58;95254.44;5012310;28;20358;-74
2022/01/26 11:18:28;;;;;;;12.03;8.00;;;;;;;6.83;50.58;95251.00;5012664;28;20200;-73
2022/01/26 11:20:55;;;;;;;13.90;8.93;;;;;;;6.83;50.59;95251.81;5012356;28;20200;-74
2022/01/26 11:23:34;;;;;;;14.67;8.67;;;;;;;6.83;50.68;95245.91;5012893;28;20226;-76
2022/01/26 11:26:01;;;;;;;13.37;8.93;;;;;;;6.83;50.76;95243.38;5012350;28;20196;-76
2022/01/26 11:28:29;;;;;;;10.60;7.93;;;;;;;6.83;51.21;95249.28;5012629;28;20232;-75
2022/01/26 11:31:05;;;;;;;9.63;7.50;;;;;;;6.79;50.62;95247.84;5012761;28;20184;-74
2022/01/26 11:33:35;;;;;;;10.87;8.37;;;;;;;6.83;50.76;95249.28;5012670;28;20197;-74
2022/01/26 11:36:03;;;;;;;11.60;8.13;;;;;;;6.81;50.73;95240.09;5012838;28;20181;-73
2022/01/26 11:39:14;;;;;;;11.23;7.40;;;;;;;6.80;50.82;95241.84;5012477;28;20196;-73
2022/01/26 11:47:24;;;;;;;12.00;8.43;;;;;;;6.79;50.84;95232.59;5012312;28;20188;-75
2022/01/26 11:49:53;;;;;;;7.97;7.17;;;;;;;6.78;50.76;95231.78;5012303;28;20204;-75
2022/01/26 11:52:23;;;;;;;9.80;7.00;;;;;;;6.72;51.11;95219.47;5026377;28;20184;-72
2022/01/26 11:54:52;;;;;;;10.53;7.47;;;;;;;6.79;50.91;95237.69;5012394;28;20189;-73
2022/01/26 11:57:22;;;;;;;9.27;7.00;;;;;;;6.80;51.03;95234.22;5012290;28;20220;-72
2022/01/26 12:00:00;;;;;;;9.90;7.73;;;;;;;6.80;51.04;95226.59;5012361;28;20204;-73
2022/01/26 12:02:50;;;;;;;9.10;7.13;;;;;;;6.75;51.26;95221.00;5012358;28;20188;-73
2022/01/26 12:05:21;;;;;;;9.17;7.53;;;;;;;6.81;51.18;95235.03;5015354;28;20199;-71
2022/01/26 12:07:48;;;;;;;10.03;7.60;;;;;;;6.79;51.40;95217.34;5030222;28;20261;-74
2022/01/26 12:10:26;;;;;;;11.30;7.93;;;;;;;6.78;51.61;95226.69;5031596;28;20199;-72
2022/01/26 12:13:01;;;;;;;7.93;6.63;;;;;;;6.68;51.78;95219.75;5026201;28;20643;-71
2022/01/26 12:15:31;;;;;;;9.80;6.77;;;;;;;6.67;51.87;95231.66;5028587;28;20638;-75
2022/01/26 12:18:15;;;;;;;13.57;8.77;;;;;;;6.48;52.21;95211.72;5025697;28;20565;-73
2022/01/26 12:32:15;;;;;;;10.80;7.90;;;;;;;6.26;52.73;95216.56;5026838;28;20211;-74
2022/01/26 12:34:49;;;;;;;11.93;8.63;;;;;;;6.32;52.74;95223.00;5027104;28;20742;-72
2022/01/26 12:37:30;;;;;;;9.90;8.40;;;;;;;6.28;52.91;95217.28;5021741;28;20195;-73
2022/01/26 12:43:03;;;;;;;8.77;7.20;;;;;;;6.24;53.04;95210.78;5028210;28;20203;-72
2022/01/26 12:45:30;;;;;;;9.97;7.87;;;;;;;6.21;53.29;95210.97;5028347;28;20198;-72
2022/01/26 12:47:58;;;;;;;10.53;7.33;;;;;;;6.22;53.17;95207.53;5028339;28;20192;-74
2022/01/26 12:50:28;;;;;;;9.97;7.40;;;;;;;6.22;53.25;95205.81;5023542;28;20207;-76
2022/01/26 12:52:57;;;;;;;11.13;7.90;;;;;;;6.19;53.16;95208.53;5027487;28;20195;-76
2022/01/26 12:55:26;;;;;;;10.17;8.70;;;;;;;5.97;53.26;95178.63;5024161;28;20275;-73
2022/01/26 12:57:54;;;;;;;9.57;7.20;;;;;;;6.11;53.27;95195.50;5025850;28;20227;-76
2022/01/26 13:00:23;;;;;;;9.77;7.93;;;;;;;6.18;53.41;95204.38;5026521;28;20187;-75
2022/01/26 13:02:51;;;;;;;10.40;7.97;;;;;;;6.18;53.45;95211.19;5027684;28;20207;-75
2022/01/26 13:05:24;;;;;;;11.70;8.07;;;;;;;6.10;53.41;95193.09;5025220;28;20199;-75
2022/01/26 13:08:02;;;;;;;10.23;7.50;;;;;;;6.12;53.53;95196.31;5025625;28;20200;-76
2022/01/26 13:10:30;;;;;;;10.13;8.03;;;;;;;6.20;53.32;95200.00;5027440;28;20233;-77
2022/01/26 13:12:58;;;;;;;9.20;6.97;;;;;;;6.20;53.29;95197.47;5026849;28;20667;-73
2022/01/26 13:15:40;;;;;;;8.73;7.47;;;;;;;6.19;53.33;95184.88;5022986;28;20219;-73
2022/01/26 13:18:19;;;;;;;11.60;7.63;;;;;;;6.25;53.47;95197.16;5025254;28;20222;-73
2022/01/26 13:21:06;;;;;;;9.30;7.40;;;;;;;6.25;53.50;95195.44;5025904;28;20229;-75
2022/01/26 13:23:47;;;;;;;9.27;6.97;;;;;;;6.22;53.46;95193.09;5022587;28;20578;-74
2022/01/26 13:26:23;;;;;;;8.83;6.83;;;;;;;6.21;53.59;95196.53;5027071;28;20257;-77
2022/01/26 13:29:03;;;;;;;10.67;6.70;;;;;;;6.18;53.48;95196.75;5026740;28;20234;-74
2022/01/26 13:32:02;;;;;;;9.40;7.57;;;;;;;6.10;53.72;95188.81;5025059;28;20224;-75